Ladd, Illinois
Current Conditions -  °F | °C
As of 6:35 PM on Sunday 21 Dec 2014 (Local Time) from KVYS Reporting Station
Overcast Overcast  
Wind Chill: 26°   Ceiling: 2900
Heat Index: 36°   Visibility: 10mi
Dew Point: 31°   Wind: 17mph
Humidity: 83%   Direction: 150°SSE
Pressure: 30.04"   Gusts: NA
Location:  41.38°N, 89.22°W
Report Text: KVYS 220035Z AUTO 15015KT 10SM OVC029 02/00 A3004 RMK AO2 T00241003
Loading
Personal Weather Stations






























Interactive Weather Map New forecast layout! Learn more

10-Day Weather Forecast

Advertisements
Track Severe Weather on mobile